Terminal Aerodrome Forecast
Issued by NWS

Home | Current Version | Previous Version | Text Only | Print | Product List | Glossary On
Versions: 1 2 3 4 5 6 7 8 9 10 11 12 13 14 15 16 17 18 19 20 21 22 23 24 25 26 27
000
FTUS45 KCYS 121720
TAFLAR
TAF
KLAR 121720Z 1218/1318 22010G20KT P6SM BKN080
     FM130000 20006KT P6SM SCT080
     FM130500 23012KT P6SM SCT080
     FM131600 27025G38KT P6SM SCT080=

USA.gov is the U.S. government's official web portal to all federal, state and local government web resources and services.